Aviation Digital Data Service (ADDS)

Output produced by TAFs form (1727 UTC 25 October 2014)
found at http://aviationweather.gov/adds/tafs/
 
KRIL 251138Z 2512/2612 VRB03KT P6SM SKC 
     FM251900 27009KT P6SM SKC 
     FM260100 14007KT P6SM SKC 
     FM260600 00000KT P6SM SCT100 SCT250